sensor_id;sensor_type;location;lat;lon;timestamp;P1;durP1;ratioP1;P2;durP2;ratioP2
34471;SDS011;20710;49.976;19.836;2022-11-28T00:03:51;89.35;;;47.10;;
34471;SDS011;20710;49.976;19.836;2022-11-28T00:16:43;88.67;;;46.28;;
34471;SDS011;20710;49.976;19.836;2022-11-28T00:22:45;87.70;;;44.85;;
34471;SDS011;20710;49.976;19.836;2022-11-28T00:28:47;91.75;;;45.88;;
34471;SDS011;20710;49.976;19.836;2022-11-28T00:34:50;89.83;;;45.95;;
34471;SDS011;20710;49.976;19.836;2022-11-28T00:47:15;82.40;;;43.08;;
34471;SDS011;20710;49.976;19.836;2022-11-28T00:53:18;81.75;;;42.17;;
34471;SDS011;20710;49.976;19.836;2022-11-28T01:05:44;89.67;;;46.63;;
34471;SDS011;20710;49.976;19.836;2022-11-28T01:11:46;90.15;;;43.60;;
34471;SDS011;20710;49.976;19.836;2022-11-28T01:24:56;91.53;;;45.25;;
34471;SDS011;20710;49.976;19.836;2022-11-28T01:31:01;83.75;;;43.50;;
34471;SDS011;20710;49.976;19.836;2022-11-28T01:43:25;79.77;;;42.88;;
34471;SDS011;20710;49.976;19.836;2022-11-28T01:49:30;77.58;;;42.48;;
34471;SDS011;20710;49.976;19.836;2022-11-28T02:09:11;79.35;;;43.63;;
34471;SDS011;20710;49.976;19.836;2022-11-28T02:42:27;88.47;;;44.20;;
34471;SDS011;20710;49.976;19.836;2022-11-28T02:48:43;87.80;;;44.08;;
34471;SDS011;20710;49.976;19.836;2022-11-28T02:55:03;87.22;;;43.98;;
34471;SDS011;20710;49.976;19.836;2022-11-28T03:07:18;79.53;;;42.20;;
34471;SDS011;20710;49.976;19.836;2022-11-28T03:19:59;64.95;;;32.95;;
34471;SDS011;20710;49.976;19.836;2022-11-28T03:32:34;81.22;;;44.20;;
34471;SDS011;20710;49.976;19.836;2022-11-28T03:38:40;84.17;;;43.02;;
34471;SDS011;20710;49.976;19.836;2022-11-28T03:44:52;85.42;;;44.63;;
34471;SDS011;20710;49.976;19.836;2022-11-28T03:50:59;80.67;;;41.63;;
34471;SDS011;20710;49.976;19.836;2022-11-28T03:57:13;93.35;;;46.42;;
34471;SDS011;20710;49.976;19.836;2022-11-28T04:03:43;78.55;;;42.23;;
34471;SDS011;20710;49.976;19.836;2022-11-28T04:22:58;82.20;;;41.00;;
34471;SDS011;20710;49.976;19.836;2022-11-28T04:28:57;84.37;;;40.40;;
34471;SDS011;20710;49.976;19.836;2022-11-28T04:35:06;70.97;;;38.28;;
34471;SDS011;20710;49.976;19.836;2022-11-28T04:41:17;81.30;;;43.63;;
34471;SDS011;20710;49.976;19.836;2022-11-28T04:47:18;73.87;;;39.53;;
34471;SDS011;20710;49.976;19.836;2022-11-28T04:53:34;73.12;;;38.30;;
34471;SDS011;20710;49.976;19.836;2022-11-28T05:00:12;71.45;;;37.80;;
34471;SDS011;20710;49.976;19.836;2022-11-28T05:06:22;66.05;;;37.88;;
34471;SDS011;20710;49.976;19.836;2022-11-28T05:12:29;72.37;;;36.23;;
34471;SDS011;20710;49.976;19.836;2022-11-28T05:18:31;68.87;;;34.92;;
34471;SDS011;20710;49.976;19.836;2022-11-28T05:24:32;71.70;;;37.08;;
34471;SDS011;20710;49.976;19.836;2022-11-28T05:36:46;70.40;;;35.43;;
34471;SDS011;20710;49.976;19.836;2022-11-28T05:42:49;90.20;;;50.03;;
34471;SDS011;20710;49.976;19.836;2022-11-28T05:48:51;73.57;;;39.45;;
34471;SDS011;20710;49.976;19.836;2022-11-28T05:54:53;75.30;;;36.68;;
34471;SDS011;20710;49.976;19.836;2022-11-28T06:00:54;69.65;;;36.08;;
34471;SDS011;20710;49.976;19.836;2022-11-28T06:06:57;68.22;;;34.60;;
34471;SDS011;20710;49.976;19.836;2022-11-28T06:13:00;71.90;;;36.45;;
34471;SDS011;20710;49.976;19.836;2022-11-28T06:19:04;71.37;;;38.48;;
34471;SDS011;20710;49.976;19.836;2022-11-28T06:25:05;79.70;;;37.45;;
34471;SDS011;20710;49.976;19.836;2022-11-28T06:44:56;66.17;;;33.95;;
34471;SDS011;20710;49.976;19.836;2022-11-28T06:51:01;73.57;;;35.08;;
34471;SDS011;20710;49.976;19.836;2022-11-28T06:57:06;65.62;;;33.98;;
34471;SDS011;20710;49.976;19.836;2022-11-28T07:03:07;64.67;;;34.50;;
34471;SDS011;20710;49.976;19.836;2022-11-28T07:09:09;68.55;;;35.85;;
34471;SDS011;20710;49.976;19.836;2022-11-28T07:15:10;65.80;;;33.08;;
34471;SDS011;20710;49.976;19.836;2022-11-28T07:21:12;60.35;;;32.38;;
34471;SDS011;20710;49.976;19.836;2022-11-28T07:27:16;68.12;;;32.45;;
34471;SDS011;20710;49.976;19.836;2022-11-28T07:33:18;58.48;;;30.97;;
34471;SDS011;20710;49.976;19.836;2022-11-28T07:39:19;59.00;;;30.23;;
34471;SDS011;20710;49.976;19.836;2022-11-28T07:45:28;55.43;;;30.35;;
34471;SDS011;20710;49.976;19.836;2022-11-28T07:51:33;60.75;;;31.97;;
34471;SDS011;20710;49.976;19.836;2022-11-28T07:57:37;53.42;;;28.70;;
34471;SDS011;20710;49.976;19.836;2022-11-28T08:03:39;60.00;;;31.02;;
34471;SDS011;20710;49.976;19.836;2022-11-28T08:09:40;54.27;;;27.80;;
34471;SDS011;20710;49.976;19.836;2022-11-28T08:15:42;54.58;;;28.50;;
34471;SDS011;20710;49.976;19.836;2022-11-28T08:21:43;55.92;;;27.48;;
34471;SDS011;20710;49.976;19.836;2022-11-28T08:27:45;47.30;;;24.82;;
34471;SDS011;20710;49.976;19.836;2022-11-28T08:33:48;44.83;;;26.02;;
34471;SDS011;20710;49.976;19.836;2022-11-28T08:40:00;39.13;;;19.40;;
34471;SDS011;20710;49.976;19.836;2022-11-28T08:46:05;47.40;;;26.45;;
34471;SDS011;20710;49.976;19.836;2022-11-28T08:52:12;54.10;;;25.37;;
34471;SDS011;20710;49.976;19.836;2022-11-28T08:58:13;41.75;;;24.72;;
34471;SDS011;20710;49.976;19.836;2022-11-28T09:04:15;49.30;;;27.00;;
34471;SDS011;20710;49.976;19.836;2022-11-28T09:10:16;42.40;;;24.77;;
34471;SDS011;20710;49.976;19.836;2022-11-28T09:16:25;47.55;;;26.33;;
34471;SDS011;20710;49.976;19.836;2022-11-28T09:22:31;46.37;;;26.35;;
34471;SDS011;20710;49.976;19.836;2022-11-28T09:28:39;45.45;;;25.97;;
34471;SDS011;20710;49.976;19.836;2022-11-28T09:34:40;42.88;;;23.20;;
34471;SDS011;20710;49.976;19.836;2022-11-28T09:40:42;40.88;;;23.15;;
34471;SDS011;20710;49.976;19.836;2022-11-28T09:46:44;36.23;;;21.82;;
34471;SDS011;20710;49.976;19.836;2022-11-28T09:59:27;32.05;;;18.85;;
34471;SDS011;20710;49.976;19.836;2022-11-28T10:05:33;30.92;;;18.90;;
34471;SDS011;20710;49.976;19.836;2022-11-28T10:24:51;35.30;;;19.95;;
34471;SDS011;20710;49.976;19.836;2022-11-28T10:30:58;34.27;;;19.98;;
34471;SDS011;20710;49.976;19.836;2022-11-28T10:37:24;30.37;;;18.92;;
34471;SDS011;20710;49.976;19.836;2022-11-28T10:43:39;31.55;;;19.55;;
34471;SDS011;20710;49.976;19.836;2022-11-28T10:56:43;32.83;;;18.05;;
34471;SDS011;20710;49.976;19.836;2022-11-28T11:03:01;31.55;;;18.55;;
34471;SDS011;20710;49.976;19.836;2022-11-28T11:09:09;29.70;;;17.75;;
34471;SDS011;20710;49.976;19.836;2022-11-28T11:15:15;30.25;;;18.32;;
34471;SDS011;20710;49.976;19.836;2022-11-28T11:21:32;31.15;;;17.45;;
34471;SDS011;20710;49.976;19.836;2022-11-28T11:27:33;32.00;;;17.62;;
34471;SDS011;20710;49.976;19.836;2022-11-28T11:33:37;29.67;;;16.45;;
34471;SDS011;20710;49.976;19.836;2022-11-28T11:39:45;30.08;;;17.55;;
34471;SDS011;20710;49.976;19.836;2022-11-28T11:46:13;28.35;;;16.67;;
34471;SDS011;20710;49.976;19.836;2022-11-28T11:52:21;26.95;;;15.90;;
34471;SDS011;20710;49.976;19.836;2022-11-28T11:58:32;29.85;;;16.57;;
34471;SDS011;20710;49.976;19.836;2022-11-28T12:04:42;32.03;;;16.73;;
34471;SDS011;20710;49.976;19.836;2022-11-28T12:11:00;27.65;;;16.05;;
34471;SDS011;20710;49.976;19.836;2022-11-28T12:23:48;27.95;;;16.50;;
34471;SDS011;20710;49.976;19.836;2022-11-28T12:49:45;28.87;;;15.83;;
34471;SDS011;20710;49.976;19.836;2022-11-28T13:02:38;23.70;;;13.85;;
34471;SDS011;20710;49.976;19.836;2022-11-28T13:09:08;25.55;;;14.33;;
34471;SDS011;20710;49.976;19.836;2022-11-28T13:15:45;25.75;;;13.50;;
34471;SDS011;20710;49.976;19.836;2022-11-28T13:22:03;20.17;;;12.30;;
34471;SDS011;20710;49.976;19.836;2022-11-28T13:28:17;19.95;;;10.80;;
34471;SDS011;20710;49.976;19.836;2022-11-28T13:34:24;22.60;;;12.25;;
34471;SDS011;20710;49.976;19.836;2022-11-28T13:40:40;22.27;;;11.95;;
34471;SDS011;20710;49.976;19.836;2022-11-28T13:59:15;21.83;;;11.60;;
34471;SDS011;20710;49.976;19.836;2022-11-28T14:05:35;20.92;;;11.10;;
34471;SDS011;20710;49.976;19.836;2022-11-28T14:18:17;18.87;;;9.70;;
34471;SDS011;20710;49.976;19.836;2022-11-28T14:24:35;18.52;;;10.53;;
34471;SDS011;20710;49.976;19.836;2022-11-28T14:30:43;19.90;;;9.03;;
34471;SDS011;20710;49.976;19.836;2022-11-28T14:36:46;17.70;;;9.23;;
34471;SDS011;20710;49.976;19.836;2022-11-28T14:43:10;16.57;;;9.48;;
34471;SDS011;20710;49.976;19.836;2022-11-28T14:49:23;25.50;;;14.05;;
34471;SDS011;20710;49.976;19.836;2022-11-28T14:55:26;19.48;;;10.28;;
34471;SDS011;20710;49.976;19.836;2022-11-28T15:20:56;29.72;;;14.75;;
34471;SDS011;20710;49.976;19.836;2022-11-28T15:33:25;25.68;;;13.43;;
34471;SDS011;20710;49.976;19.836;2022-11-28T15:45:49;42.55;;;20.32;;
34471;SDS011;20710;49.976;19.836;2022-11-28T15:59:02;44.93;;;18.62;;
34471;SDS011;20710;49.976;19.836;2022-11-28T16:05:08;53.13;;;23.12;;
34471;SDS011;20710;49.976;19.836;2022-11-28T16:11:16;49.35;;;20.82;;
34471;SDS011;20710;49.976;19.836;2022-11-28T16:17:32;41.80;;;22.40;;
34471;SDS011;20710;49.976;19.836;2022-11-28T16:23:33;40.55;;;19.77;;
34471;SDS011;20710;49.976;19.836;2022-11-28T16:29:42;88.92;;;32.25;;
34471;SDS011;20710;49.976;19.836;2022-11-28T16:35:47;59.18;;;27.20;;
34471;SDS011;20710;49.976;19.836;2022-11-28T16:41:51;109.83;;;41.83;;
34471;SDS011;20710;49.976;19.836;2022-11-28T16:48:14;99.67;;;35.83;;
34471;SDS011;20710;49.976;19.836;2022-11-28T16:54:30;218.42;;;70.00;;
34471;SDS011;20710;49.976;19.836;2022-11-28T17:07:01;160.78;;;56.33;;
34471;SDS011;20710;49.976;19.836;2022-11-28T17:13:05;150.80;;;54.00;;
34471;SDS011;20710;49.976;19.836;2022-11-28T17:19:06;101.97;;;41.42;;
34471;SDS011;20710;49.976;19.836;2022-11-28T17:25:14;75.12;;;35.17;;
34471;SDS011;20710;49.976;19.836;2022-11-28T17:31:20;67.75;;;27.60;;
34471;SDS011;20710;49.976;19.836;2022-11-28T17:37:23;55.75;;;28.67;;
34471;SDS011;20710;49.976;19.836;2022-11-28T17:43:25;56.88;;;26.95;;
34471;SDS011;20710;49.976;19.836;2022-11-28T17:49:27;62.65;;;31.50;;
34471;SDS011;20710;49.976;19.836;2022-11-28T18:02:01;87.67;;;40.83;;
34471;SDS011;20710;49.976;19.836;2022-11-28T18:08:03;207.30;;;98.52;;
34471;SDS011;20710;49.976;19.836;2022-11-28T18:14:05;153.42;;;64.12;;
34471;SDS011;20710;49.976;19.836;2022-11-28T18:20:08;143.32;;;61.70;;
34471;SDS011;20710;49.976;19.836;2022-11-28T18:26:12;105.65;;;50.67;;
34471;SDS011;20710;49.976;19.836;2022-11-28T18:32:17;114.03;;;53.20;;
34471;SDS011;20710;49.976;19.836;2022-11-28T18:38:23;103.87;;;55.63;;
34471;SDS011;20710;49.976;19.836;2022-11-28T18:44:28;101.92;;;52.35;;
34471;SDS011;20710;49.976;19.836;2022-11-28T18:50:29;94.20;;;47.20;;
34471;SDS011;20710;49.976;19.836;2022-11-28T18:56:32;117.30;;;56.13;;
34471;SDS011;20710;49.976;19.836;2022-11-28T19:02:34;100.60;;;54.25;;
34471;SDS011;20710;49.976;19.836;2022-11-28T19:08:39;102.43;;;52.87;;
34471;SDS011;20710;49.976;19.836;2022-11-28T19:14:41;106.65;;;54.00;;
34471;SDS011;20710;49.976;19.836;2022-11-28T19:20:43;98.85;;;47.55;;
34471;SDS011;20710;49.976;19.836;2022-11-28T19:26:46;98.65;;;49.53;;
34471;SDS011;20710;49.976;19.836;2022-11-28T19:32:47;99.07;;;46.90;;
34471;SDS011;20710;49.976;19.836;2022-11-28T19:38:48;73.40;;;36.98;;
34471;SDS011;20710;49.976;19.836;2022-11-28T19:44:50;81.65;;;38.38;;
34471;SDS011;20710;49.976;19.836;2022-11-28T19:50:52;83.97;;;40.67;;
34471;SDS011;20710;49.976;19.836;2022-11-28T19:56:53;73.50;;;37.45;;
34471;SDS011;20710;49.976;19.836;2022-11-28T20:02:55;70.37;;;34.20;;
34471;SDS011;20710;49.976;19.836;2022-11-28T20:08:59;77.85;;;39.15;;
34471;SDS011;20710;49.976;19.836;2022-11-28T20:15:04;83.43;;;39.73;;
34471;SDS011;20710;49.976;19.836;2022-11-28T20:21:07;98.97;;;43.43;;
34471;SDS011;20710;49.976;19.836;2022-11-28T20:27:16;82.63;;;40.80;;
34471;SDS011;20710;49.976;19.836;2022-11-28T20:33:17;79.70;;;36.80;;
34471;SDS011;20710;49.976;19.836;2022-11-28T20:39:22;121.97;;;61.93;;
34471;SDS011;20710;49.976;19.836;2022-11-28T20:45:26;99.20;;;49.63;;
34471;SDS011;20710;49.976;19.836;2022-11-28T20:51:28;85.92;;;43.08;;
34471;SDS011;20710;49.976;19.836;2022-11-28T20:57:31;83.90;;;41.00;;
34471;SDS011;20710;49.976;19.836;2022-11-28T21:03:33;81.57;;;39.67;;
34471;SDS011;20710;49.976;19.836;2022-11-28T21:09:34;89.67;;;43.47;;
34471;SDS011;20710;49.976;19.836;2022-11-28T21:15:39;96.07;;;47.87;;
34471;SDS011;20710;49.976;19.836;2022-11-28T21:21:44;82.97;;;42.40;;
34471;SDS011;20710;49.976;19.836;2022-11-28T21:27:45;97.03;;;47.10;;
34471;SDS011;20710;49.976;19.836;2022-11-28T21:33:53;90.63;;;46.70;;
34471;SDS011;20710;49.976;19.836;2022-11-28T21:39:56;86.93;;;45.83;;
34471;SDS011;20710;49.976;19.836;2022-11-28T21:46:00;86.57;;;42.50;;
34471;SDS011;20710;49.976;19.836;2022-11-28T21:52:04;73.00;;;39.33;;
34471;SDS011;20710;49.976;19.836;2022-11-28T21:58:07;86.33;;;43.37;;
34471;SDS011;20710;49.976;19.836;2022-11-28T22:04:09;89.50;;;48.20;;
34471;SDS011;20710;49.976;19.836;2022-11-28T22:10:14;84.37;;;42.77;;
34471;SDS011;20710;49.976;19.836;2022-11-28T22:16:17;85.20;;;40.87;;
34471;SDS011;20710;49.976;19.836;2022-11-28T22:22:22;84.70;;;43.33;;
34471;SDS011;20710;49.976;19.836;2022-11-28T22:28:27;88.53;;;43.63;;
34471;SDS011;20710;49.976;19.836;2022-11-28T22:34:28;93.37;;;43.43;;
34471;SDS011;20710;49.976;19.836;2022-11-28T22:40:30;89.40;;;43.77;;
34471;SDS011;20710;49.976;19.836;2022-11-28T22:46:34;100.27;;;49.30;;
34471;SDS011;20710;49.976;19.836;2022-11-28T22:52:36;91.97;;;44.93;;
34471;SDS011;20710;49.976;19.836;2022-11-28T22:58:39;100.33;;;47.33;;
34471;SDS011;20710;49.976;19.836;2022-11-28T23:04:42;99.37;;;48.23;;
34471;SDS011;20710;49.976;19.836;2022-11-28T23:10:44;100.67;;;48.53;;
34471;SDS011;20710;49.976;19.836;2022-11-28T23:16:45;105.57;;;48.43;;
34471;SDS011;20710;49.976;19.836;2022-11-28T23:22:47;110.67;;;48.47;;
34471;SDS011;20710;49.976;19.836;2022-11-28T23:28:49;103.93;;;47.47;;
34471;SDS011;20710;49.976;19.836;2022-11-28T23:34:51;99.37;;;46.97;;
34471;SDS011;20710;49.976;19.836;2022-11-28T23:40:54;83.37;;;40.57;;
34471;SDS011;20710;49.976;19.836;2022-11-28T23:46:56;89.83;;;44.20;;
34471;SDS011;20710;49.976;19.836;2022-11-28T23:52:57;89.47;;;44.27;;
34471;SDS011;20710;49.976;19.836;2022-11-28T23:58:59;93.37;;;43.93;;
